sensor_id;sensor_type;location;lat;lon;timestamp;P1;durP1;ratioP1;P2;durP2;ratioP2
71773;SDS011;59607;52.130;5.430;2023-03-01T00:01:31;6.10;;;4.78;;
71773;SDS011;59607;52.130;5.430;2023-03-01T00:04:04;6.38;;;4.88;;
71773;SDS011;59607;52.130;5.430;2023-03-01T00:06:30;7.50;;;5.10;;
71773;SDS011;59607;52.130;5.430;2023-03-01T00:08:57;7.60;;;5.43;;
71773;SDS011;59607;52.130;5.430;2023-03-01T00:11:36;7.63;;;4.75;;
71773;SDS011;59607;52.130;5.430;2023-03-01T00:14:17;6.43;;;4.88;;
71773;SDS011;59607;52.130;5.430;2023-03-01T00:16:46;5.88;;;5.20;;
71773;SDS011;59607;52.130;5.430;2023-03-01T00:19:14;7.75;;;5.15;;
71773;SDS011;59607;52.130;5.430;2023-03-01T00:21:46;7.60;;;4.93;;
71773;SDS011;59607;52.130;5.430;2023-03-01T00:24:15;8.95;;;5.60;;
71773;SDS011;59607;52.130;5.430;2023-03-01T00:26:41;6.50;;;5.20;;
71773;SDS011;59607;52.130;5.430;2023-03-01T00:29:08;10.23;;;5.35;;
71773;SDS011;59607;52.130;5.430;2023-03-01T00:31:34;8.65;;;5.45;;
71773;SDS011;59607;52.130;5.430;2023-03-01T00:34:08;10.23;;;5.73;;
71773;SDS011;59607;52.130;5.430;2023-03-01T00:36:41;12.75;;;6.68;;
71773;SDS011;59607;52.130;5.430;2023-03-01T00:39:12;7.05;;;5.82;;
71773;SDS011;59607;52.130;5.430;2023-03-01T00:42:01;7.80;;;6.05;;
71773;SDS011;59607;52.130;5.430;2023-03-01T00:44:31;8.77;;;5.85;;
71773;SDS011;59607;52.130;5.430;2023-03-01T00:46:57;10.10;;;5.87;;
71773;SDS011;59607;52.130;5.430;2023-03-01T00:49:29;7.63;;;5.32;;
71773;SDS011;59607;52.130;5.430;2023-03-01T00:51:56;12.52;;;6.10;;
71773;SDS011;59607;52.130;5.430;2023-03-01T00:54:25;12.05;;;6.18;;
71773;SDS011;59607;52.130;5.430;2023-03-01T00:56:52;9.60;;;6.13;;
71773;SDS011;59607;52.130;5.430;2023-03-01T00:59:18;6.17;;;5.57;;
71773;SDS011;59607;52.130;5.430;2023-03-01T01:01:45;8.32;;;6.18;;
71773;SDS011;59607;52.130;5.430;2023-03-01T01:04:26;10.60;;;6.22;;
71773;SDS011;59607;52.130;5.430;2023-03-01T01:06:58;7.05;;;5.97;;
71773;SDS011;59607;52.130;5.430;2023-03-01T01:09:25;9.30;;;6.38;;
71773;SDS011;59607;52.130;5.430;2023-03-01T01:11:57;8.93;;;6.27;;
71773;SDS011;59607;52.130;5.430;2023-03-01T01:14:26;8.48;;;6.45;;
71773;SDS011;59607;52.130;5.430;2023-03-01T01:16:52;9.18;;;6.60;;
71773;SDS011;59607;52.130;5.430;2023-03-01T01:19:37;7.75;;;6.25;;
71773;SDS011;59607;52.130;5.430;2023-03-01T01:22:06;10.75;;;6.28;;
71773;SDS011;59607;52.130;5.430;2023-03-01T01:24:33;8.07;;;6.30;;
71773;SDS011;59607;52.130;5.430;2023-03-01T01:26:59;7.80;;;6.43;;
71773;SDS011;59607;52.130;5.430;2023-03-01T01:29:31;8.70;;;6.53;;
71773;SDS011;59607;52.130;5.430;2023-03-01T01:31:57;8.27;;;6.20;;
71773;SDS011;59607;52.130;5.430;2023-03-01T01:34:30;8.32;;;6.18;;
71773;SDS011;59607;52.130;5.430;2023-03-01T01:37:00;9.63;;;5.77;;
71773;SDS011;59607;52.130;5.430;2023-03-01T01:39:31;8.80;;;6.72;;
71773;SDS011;59607;52.130;5.430;2023-03-01T01:42:02;10.85;;;6.78;;
71773;SDS011;59607;52.130;5.430;2023-03-01T01:44:29;8.73;;;6.13;;
71773;SDS011;59607;52.130;5.430;2023-03-01T01:47:02;8.52;;;6.72;;
71773;SDS011;59607;52.130;5.430;2023-03-01T01:49:32;11.90;;;7.30;;
71773;SDS011;59607;52.130;5.430;2023-03-01T01:54:53;9.20;;;6.38;;
71773;SDS011;59607;52.130;5.430;2023-03-01T01:57:38;8.23;;;6.03;;
71773;SDS011;59607;52.130;5.430;2023-03-01T02:00:16;7.82;;;6.68;;
71773;SDS011;59607;52.130;5.430;2023-03-01T02:02:51;9.37;;;6.87;;
71773;SDS011;59607;52.130;5.430;2023-03-01T02:05:36;11.45;;;7.47;;
71773;SDS011;59607;52.130;5.430;2023-03-01T02:08:27;10.23;;;7.03;;
71773;SDS011;59607;52.130;5.430;2023-03-01T02:10:58;8.63;;;6.65;;
71773;SDS011;59607;52.130;5.430;2023-03-01T02:13:31;11.48;;;7.75;;
71773;SDS011;59607;52.130;5.430;2023-03-01T02:16:03;7.73;;;6.90;;
71773;SDS011;59607;52.130;5.430;2023-03-01T02:18:39;10.52;;;6.78;;
71773;SDS011;59607;52.130;5.430;2023-03-01T02:24:08;11.25;;;7.43;;
71773;SDS011;59607;52.130;5.430;2023-03-01T02:26:57;11.45;;;7.55;;
71773;SDS011;59607;52.130;5.430;2023-03-01T02:29:31;9.87;;;7.20;;
71773;SDS011;59607;52.130;5.430;2023-03-01T02:32:05;11.57;;;7.07;;
71773;SDS011;59607;52.130;5.430;2023-03-01T02:34:32;10.18;;;7.60;;
71773;SDS011;59607;52.130;5.430;2023-03-01T02:37:10;12.23;;;7.13;;
71773;SDS011;59607;52.130;5.430;2023-03-01T02:39:59;11.25;;;7.22;;
71773;SDS011;59607;52.130;5.430;2023-03-01T02:42:35;9.80;;;7.83;;
71773;SDS011;59607;52.130;5.430;2023-03-01T02:45:08;14.77;;;7.63;;
71773;SDS011;59607;52.130;5.430;2023-03-01T02:47:38;15.23;;;8.45;;
71773;SDS011;59607;52.130;5.430;2023-03-01T02:50:12;11.20;;;7.97;;
71773;SDS011;59607;52.130;5.430;2023-03-01T02:56:07;8.57;;;6.60;;
71773;SDS011;59607;52.130;5.430;2023-03-01T02:58:41;10.05;;;7.35;;
71773;SDS011;59607;52.130;5.430;2023-03-01T03:01:17;8.60;;;6.95;;
71773;SDS011;59607;52.130;5.430;2023-03-01T03:04:03;12.23;;;7.38;;
71773;SDS011;59607;52.130;5.430;2023-03-01T03:06:34;13.05;;;6.85;;
71773;SDS011;59607;52.130;5.430;2023-03-01T03:09:06;12.20;;;7.80;;
71773;SDS011;59607;52.130;5.430;2023-03-01T03:11:34;11.52;;;7.65;;
71773;SDS011;59607;52.130;5.430;2023-03-01T03:14:01;9.32;;;7.05;;
71773;SDS011;59607;52.130;5.430;2023-03-01T03:16:29;10.68;;;7.60;;
71773;SDS011;59607;52.130;5.430;2023-03-01T03:18:56;10.45;;;7.25;;
71773;SDS011;59607;52.130;5.430;2023-03-01T03:21:33;9.03;;;7.03;;
71773;SDS011;59607;52.130;5.430;2023-03-01T03:24:00;9.27;;;6.95;;
71773;SDS011;59607;52.130;5.430;2023-03-01T03:26:28;9.75;;;7.05;;
71773;SDS011;59607;52.130;5.430;2023-03-01T03:28:56;14.50;;;7.63;;
71773;SDS011;59607;52.130;5.430;2023-03-01T03:31:23;13.60;;;7.63;;
71773;SDS011;59607;52.130;5.430;2023-03-01T03:33:49;8.27;;;6.30;;
71773;SDS011;59607;52.130;5.430;2023-03-01T03:36:22;8.75;;;6.72;;
71773;SDS011;59607;52.130;5.430;2023-03-01T03:38:50;7.70;;;6.90;;
71773;SDS011;59607;52.130;5.430;2023-03-01T03:41:20;13.30;;;7.35;;
71773;SDS011;59607;52.130;5.430;2023-03-01T03:43:50;10.98;;;6.80;;
71773;SDS011;59607;52.130;5.430;2023-03-01T03:46:16;9.67;;;6.40;;
71773;SDS011;59607;52.130;5.430;2023-03-01T03:48:57;11.35;;;6.85;;
71773;SDS011;59607;52.130;5.430;2023-03-01T03:51:30;10.52;;;7.50;;
71773;SDS011;59607;52.130;5.430;2023-03-01T03:53:56;10.98;;;6.85;;
71773;SDS011;59607;52.130;5.430;2023-03-01T03:56:33;7.47;;;6.55;;
71773;SDS011;59607;52.130;5.430;2023-03-01T03:58:59;7.63;;;6.83;;
71773;SDS011;59607;52.130;5.430;2023-03-01T04:01:29;11.05;;;7.90;;
71773;SDS011;59607;52.130;5.430;2023-03-01T04:03:55;7.80;;;6.97;;
71773;SDS011;59607;52.130;5.430;2023-03-01T04:06:22;8.82;;;5.95;;
71773;SDS011;59607;52.130;5.430;2023-03-01T04:08:48;13.93;;;7.35;;
71773;SDS011;59607;52.130;5.430;2023-03-01T04:11:21;9.60;;;7.20;;
71773;SDS011;59607;52.130;5.430;2023-03-01T04:13:57;10.18;;;7.00;;
71773;SDS011;59607;52.130;5.430;2023-03-01T04:16:28;9.60;;;7.30;;
71773;SDS011;59607;52.130;5.430;2023-03-01T04:18:58;10.32;;;7.28;;
71773;SDS011;59607;52.130;5.430;2023-03-01T04:21:28;10.50;;;6.82;;
71773;SDS011;59607;52.130;5.430;2023-03-01T04:24:01;8.60;;;6.77;;
71773;SDS011;59607;52.130;5.430;2023-03-01T04:26:33;7.10;;;6.40;;
71773;SDS011;59607;52.130;5.430;2023-03-01T04:28:59;9.85;;;6.43;;
71773;SDS011;59607;52.130;5.430;2023-03-01T04:31:26;8.07;;;6.32;;
71773;SDS011;59607;52.130;5.430;2023-03-01T04:33:53;12.13;;;7.15;;
71773;SDS011;59607;52.130;5.430;2023-03-01T04:36:22;10.70;;;6.90;;
71773;SDS011;59607;52.130;5.430;2023-03-01T04:38:51;7.20;;;6.43;;
71773;SDS011;59607;52.130;5.430;2023-03-01T04:41:22;8.60;;;6.05;;
71773;SDS011;59607;52.130;5.430;2023-03-01T04:43:53;11.75;;;7.47;;
71773;SDS011;59607;52.130;5.430;2023-03-01T04:46:23;8.85;;;6.53;;
71773;SDS011;59607;52.130;5.430;2023-03-01T04:48:52;9.50;;;6.77;;
71773;SDS011;59607;52.130;5.430;2023-03-01T04:51:23;10.98;;;6.45;;
71773;SDS011;59607;52.130;5.430;2023-03-01T04:53:51;9.45;;;7.07;;
71773;SDS011;59607;52.130;5.430;2023-03-01T04:56:20;7.05;;;6.35;;
71773;SDS011;59607;52.130;5.430;2023-03-01T04:58:52;9.07;;;7.07;;
71773;SDS011;59607;52.130;5.430;2023-03-01T05:01:23;10.43;;;7.20;;
71773;SDS011;59607;52.130;5.430;2023-03-01T05:03:56;8.43;;;7.20;;
71773;SDS011;59607;52.130;5.430;2023-03-01T05:06:32;13.23;;;6.88;;
71773;SDS011;59607;52.130;5.430;2023-03-01T05:08:59;13.20;;;7.35;;
71773;SDS011;59607;52.130;5.430;2023-03-01T05:11:33;13.05;;;8.30;;
71773;SDS011;59607;52.130;5.430;2023-03-01T05:14:02;17.33;;;7.20;;
71773;SDS011;59607;52.130;5.430;2023-03-01T05:16:35;11.40;;;7.20;;
71773;SDS011;59607;52.130;5.430;2023-03-01T05:19:03;13.52;;;7.00;;
71773;SDS011;59607;52.130;5.430;2023-03-01T05:21:42;14.45;;;7.97;;
71773;SDS011;59607;52.130;5.430;2023-03-01T05:24:30;13.13;;;6.45;;
71773;SDS011;59607;52.130;5.430;2023-03-01T05:27:05;11.00;;;6.80;;
71773;SDS011;59607;52.130;5.430;2023-03-01T05:29:32;11.77;;;6.93;;
71773;SDS011;59607;52.130;5.430;2023-03-01T05:32:03;7.45;;;5.55;;
71773;SDS011;59607;52.130;5.430;2023-03-01T05:34:34;8.40;;;6.50;;
71773;SDS011;59607;52.130;5.430;2023-03-01T05:37:08;9.15;;;6.50;;
71773;SDS011;59607;52.130;5.430;2023-03-01T05:39:35;8.93;;;6.33;;
71773;SDS011;59607;52.130;5.430;2023-03-01T05:42:05;7.90;;;6.53;;
71773;SDS011;59607;52.130;5.430;2023-03-01T05:44:34;8.27;;;6.55;;
71773;SDS011;59607;52.130;5.430;2023-03-01T05:47:01;8.75;;;6.72;;
71773;SDS011;59607;52.130;5.430;2023-03-01T05:49:41;11.27;;;6.97;;
71773;SDS011;59607;52.130;5.430;2023-03-01T05:52:10;13.63;;;7.33;;
71773;SDS011;59607;52.130;5.430;2023-03-01T05:54:37;12.27;;;7.82;;
71773;SDS011;59607;52.130;5.430;2023-03-01T05:57:03;7.53;;;6.75;;
71773;SDS011;59607;52.130;5.430;2023-03-01T05:59:33;8.60;;;6.65;;
71773;SDS011;59607;52.130;5.430;2023-03-01T06:02:01;9.52;;;6.93;;
71773;SDS011;59607;52.130;5.430;2023-03-01T06:04:27;8.10;;;6.57;;
71773;SDS011;59607;52.130;5.430;2023-03-01T06:06:57;11.32;;;6.55;;
71773;SDS011;59607;52.130;5.430;2023-03-01T06:09:24;11.85;;;6.53;;
71773;SDS011;59607;52.130;5.430;2023-03-01T06:11:52;11.48;;;6.65;;
71773;SDS011;59607;52.130;5.430;2023-03-01T06:14:20;8.07;;;7.03;;
71773;SDS011;59607;52.130;5.430;2023-03-01T06:16:53;8.40;;;6.53;;
71773;SDS011;59607;52.130;5.430;2023-03-01T06:19:22;9.10;;;6.88;;
71773;SDS011;59607;52.130;5.430;2023-03-01T06:21:53;10.07;;;6.95;;
71773;SDS011;59607;52.130;5.430;2023-03-01T06:24:19;8.35;;;6.68;;
71773;SDS011;59607;52.130;5.430;2023-03-01T06:26:48;13.02;;;6.93;;
71773;SDS011;59607;52.130;5.430;2023-03-01T06:29:15;9.57;;;6.87;;
71773;SDS011;59607;52.130;5.430;2023-03-01T06:31:41;11.25;;;7.10;;
71773;SDS011;59607;52.130;5.430;2023-03-01T06:34:08;10.85;;;6.93;;
71773;SDS011;59607;52.130;5.430;2023-03-01T06:36:41;11.10;;;7.03;;
71773;SDS011;59607;52.130;5.430;2023-03-01T06:39:07;9.68;;;6.38;;
71773;SDS011;59607;52.130;5.430;2023-03-01T06:41:44;9.23;;;7.27;;
71773;SDS011;59607;52.130;5.430;2023-03-01T06:44:13;9.00;;;6.55;;
71773;SDS011;59607;52.130;5.430;2023-03-01T06:46:47;9.30;;;6.78;;
71773;SDS011;59607;52.130;5.430;2023-03-01T06:49:15;7.70;;;6.43;;
71773;SDS011;59607;52.130;5.430;2023-03-01T06:51:47;10.88;;;7.45;;
71773;SDS011;59607;52.130;5.430;2023-03-01T06:54:13;11.70;;;7.07;;
71773;SDS011;59607;52.130;5.430;2023-03-01T06:56:40;13.13;;;7.45;;
71773;SDS011;59607;52.130;5.430;2023-03-01T06:59:21;11.18;;;7.90;;
71773;SDS011;59607;52.130;5.430;2023-03-01T07:01:55;8.43;;;6.80;;
71773;SDS011;59607;52.130;5.430;2023-03-01T07:04:21;12.13;;;7.45;;
71773;SDS011;59607;52.130;5.430;2023-03-01T07:06:55;14.70;;;7.53;;
71773;SDS011;59607;52.130;5.430;2023-03-01T07:09:23;12.05;;;7.28;;
71773;SDS011;59607;52.130;5.430;2023-03-01T07:12:00;13.45;;;7.63;;
71773;SDS011;59607;52.130;5.430;2023-03-01T07:14:27;11.48;;;7.47;;
71773;SDS011;59607;52.130;5.430;2023-03-01T07:17:01;10.77;;;7.78;;
71773;SDS011;59607;52.130;5.430;2023-03-01T07:19:27;8.97;;;6.90;;
71773;SDS011;59607;52.130;5.430;2023-03-01T07:21:54;11.20;;;7.85;;
71773;SDS011;59607;52.130;5.430;2023-03-01T07:24:21;12.13;;;8.35;;
71773;SDS011;59607;52.130;5.430;2023-03-01T07:26:51;11.20;;;8.68;;
71773;SDS011;59607;52.130;5.430;2023-03-01T07:29:18;16.55;;;8.50;;
71773;SDS011;59607;52.130;5.430;2023-03-01T07:31:49;12.43;;;7.67;;
71773;SDS011;59607;52.130;5.430;2023-03-01T07:34:16;9.95;;;7.97;;
71773;SDS011;59607;52.130;5.430;2023-03-01T07:36:42;9.25;;;7.90;;
71773;SDS011;59607;52.130;5.430;2023-03-01T07:39:14;14.48;;;8.30;;
71773;SDS011;59607;52.130;5.430;2023-03-01T07:41:43;16.40;;;8.57;;
71773;SDS011;59607;52.130;5.430;2023-03-01T07:44:19;11.30;;;7.40;;
71773;SDS011;59607;52.130;5.430;2023-03-01T07:46:46;10.00;;;7.47;;
71773;SDS011;59607;52.130;5.430;2023-03-01T07:49:23;9.88;;;7.93;;
71773;SDS011;59607;52.130;5.430;2023-03-01T07:52:01;10.70;;;8.00;;
71773;SDS011;59607;52.130;5.430;2023-03-01T07:54:27;9.35;;;7.25;;
71773;SDS011;59607;52.130;5.430;2023-03-01T07:56:54;10.30;;;7.40;;
71773;SDS011;59607;52.130;5.430;2023-03-01T07:59:24;9.68;;;7.25;;
71773;SDS011;59607;52.130;5.430;2023-03-01T08:01:58;10.07;;;7.78;;
71773;SDS011;59607;52.130;5.430;2023-03-01T08:04:27;10.45;;;7.35;;
71773;SDS011;59607;52.130;5.430;2023-03-01T08:06:54;10.70;;;6.82;;
71773;SDS011;59607;52.130;5.430;2023-03-01T08:09:27;9.07;;;7.07;;
71773;SDS011;59607;52.130;5.430;2023-03-01T08:11:57;8.88;;;6.38;;
71773;SDS011;59607;52.130;5.430;2023-03-01T08:14:28;8.75;;;4.97;;
71773;SDS011;59607;52.130;5.430;2023-03-01T08:16:55;7.18;;;5.40;;
71773;SDS011;59607;52.130;5.430;2023-03-01T08:19:22;7.07;;;5.45;;
71773;SDS011;59607;52.130;5.430;2023-03-01T08:21:57;7.13;;;5.63;;
71773;SDS011;59607;52.130;5.430;2023-03-01T08:24:24;7.20;;;5.13;;
71773;SDS011;59607;52.130;5.430;2023-03-01T08:26:50;5.68;;;4.80;;
71773;SDS011;59607;52.130;5.430;2023-03-01T08:29:31;5.47;;;4.93;;
71773;SDS011;59607;52.130;5.430;2023-03-01T08:32:03;5.10;;;4.60;;
71773;SDS011;59607;52.130;5.430;2023-03-01T08:34:30;6.73;;;4.93;;
71773;SDS011;59607;52.130;5.430;2023-03-01T08:37:02;6.88;;;4.20;;
71773;SDS011;59607;52.130;5.430;2023-03-01T08:39:31;7.88;;;4.78;;
71773;SDS011;59607;52.130;5.430;2023-03-01T08:42:00;4.35;;;3.92;;
71773;SDS011;59607;52.130;5.430;2023-03-01T08:44:30;4.43;;;3.92;;
71773;SDS011;59607;52.130;5.430;2023-03-01T08:46:56;4.83;;;3.97;;
71773;SDS011;59607;52.130;5.430;2023-03-01T08:49:26;7.22;;;3.95;;
71773;SDS011;59607;52.130;5.430;2023-03-01T08:51:55;5.53;;;4.53;;
71773;SDS011;59607;52.130;5.430;2023-03-01T08:54:22;4.78;;;4.30;;
71773;SDS011;59607;52.130;5.430;2023-03-01T08:56:48;6.55;;;4.40;;
71773;SDS011;59607;52.130;5.430;2023-03-01T08:59:18;5.37;;;3.67;;
71773;SDS011;59607;52.130;5.430;2023-03-01T09:01:44;6.35;;;3.97;;
71773;SDS011;59607;52.130;5.430;2023-03-01T09:04:14;6.55;;;3.70;;
71773;SDS011;59607;52.130;5.430;2023-03-01T09:06:47;4.85;;;3.53;;
71773;SDS011;59607;52.130;5.430;2023-03-01T09:09:15;6.35;;;4.05;;
71773;SDS011;59607;52.130;5.430;2023-03-01T09:11:44;3.80;;;3.20;;
71773;SDS011;59607;52.130;5.430;2023-03-01T09:14:12;5.43;;;4.10;;
71773;SDS011;59607;52.130;5.430;2023-03-01T09:16:42;5.35;;;4.15;;
71773;SDS011;59607;52.130;5.430;2023-03-01T09:19:09;5.45;;;4.03;;
71773;SDS011;59607;52.130;5.430;2023-03-01T09:21:35;6.93;;;3.35;;
71773;SDS011;59607;52.130;5.430;2023-03-01T09:24:14;3.93;;;3.23;;
71773;SDS011;59607;52.130;5.430;2023-03-01T09:26:41;5.00;;;3.20;;
71773;SDS011;59607;52.130;5.430;2023-03-01T09:29:11;4.10;;;3.65;;
71773;SDS011;59607;52.130;5.430;2023-03-01T09:31:42;4.32;;;3.28;;
71773;SDS011;59607;52.130;5.430;2023-03-01T09:34:17;5.05;;;3.20;;
71773;SDS011;59607;52.130;5.430;2023-03-01T09:36:49;5.23;;;3.10;;
71773;SDS011;59607;52.130;5.430;2023-03-01T09:39:19;6.35;;;2.42;;
71773;SDS011;59607;52.130;5.430;2023-03-01T09:42:02;3.20;;;2.47;;
71773;SDS011;59607;52.130;5.430;2023-03-01T09:47:25;5.72;;;2.45;;
71773;SDS011;59607;52.130;5.430;2023-03-01T09:50:13;3.67;;;2.13;;
71773;SDS011;59607;52.130;5.430;2023-03-01T09:53:23;2.65;;;2.30;;
71773;SDS011;59607;52.130;5.430;2023-03-01T09:55:59;4.28;;;2.08;;
71773;SDS011;59607;52.130;5.430;2023-03-01T09:58:40;2.83;;;1.92;;
71773;SDS011;59607;52.130;5.430;2023-03-01T10:06:35;4.63;;;1.60;;
71773;SDS011;59607;52.130;5.430;2023-03-01T10:09:05;3.42;;;1.67;;
71773;SDS011;59607;52.130;5.430;2023-03-01T10:11:47;3.17;;;1.60;;
71773;SDS011;59607;52.130;5.430;2023-03-01T10:14:32;3.28;;;1.95;;
71773;SDS011;59607;52.130;5.430;2023-03-01T10:20:46;2.60;;;1.88;;
71773;SDS011;59607;52.130;5.430;2023-03-01T10:23:03;3.10;;;1.85;;
71773;SDS011;59607;52.130;5.430;2023-03-01T10:28:23;3.08;;;1.92;;
71773;SDS011;59607;52.130;5.430;2023-03-01T10:31:11;2.63;;;2.00;;
71773;SDS011;59607;52.130;5.430;2023-03-01T10:33:49;2.15;;;1.83;;
71773;SDS011;59607;52.130;5.430;2023-03-01T10:36:27;6.80;;;1.75;;
71773;SDS011;59607;52.130;5.430;2023-03-01T10:39:05;3.05;;;1.73;;
71773;SDS011;59607;52.130;5.430;2023-03-01T10:41:56;2.72;;;1.48;;
71773;SDS011;59607;52.130;5.430;2023-03-01T10:44:50;2.90;;;1.10;;
71773;SDS011;59607;52.130;5.430;2023-03-01T10:47:23;3.55;;;1.20;;
71773;SDS011;59607;52.130;5.430;2023-03-01T10:50:04;2.20;;;1.10;;
71773;SDS011;59607;52.130;5.430;2023-03-01T10:53:02;1.98;;;1.27;;
71773;SDS011;59607;52.130;5.430;2023-03-01T10:55:37;1.95;;;1.23;;
71773;SDS011;59607;52.130;5.430;2023-03-01T10:58:34;1.90;;;1.10;;
71773;SDS011;59607;52.130;5.430;2023-03-01T11:01:49;1.50;;;0.88;;
71773;SDS011;59607;52.130;5.430;2023-03-01T11:07:48;2.75;;;0.90;;
71773;SDS011;59607;52.130;5.430;2023-03-01T11:10:19;2.80;;;1.33;;
71773;SDS011;59607;52.130;5.430;2023-03-01T11:13:16;5.53;;;1.97;;
71773;SDS011;59607;52.130;5.430;2023-03-01T11:16:01;2.10;;;0.80;;
71773;SDS011;59607;52.130;5.430;2023-03-01T11:18:59;2.45;;;1.25;;
71773;SDS011;59607;52.130;5.430;2023-03-01T11:24:12;2.30;;;1.20;;
71773;SDS011;59607;52.130;5.430;2023-03-01T11:26:43;2.13;;;1.00;;
71773;SDS011;59607;52.130;5.430;2023-03-01T11:29:26;5.30;;;1.05;;
71773;SDS011;59607;52.130;5.430;2023-03-01T11:32:13;2.05;;;1.10;;
71773;SDS011;59607;52.130;5.430;2023-03-01T11:34:49;1.50;;;0.90;;
71773;SDS011;59607;52.130;5.430;2023-03-01T11:40:35;1.73;;;0.93;;
71773;SDS011;59607;52.130;5.430;2023-03-01T11:43:24;1.13;;;0.82;;
71773;SDS011;59607;52.130;5.430;2023-03-01T11:48:52;2.15;;;1.00;;
71773;SDS011;59607;52.130;5.430;2023-03-01T11:54:34;2.00;;;1.43;;
71773;SDS011;59607;52.130;5.430;2023-03-01T11:57:01;2.25;;;1.30;;
71773;SDS011;59607;52.130;5.430;2023-03-01T12:06:18;2.30;;;1.48;;
71773;SDS011;59607;52.130;5.430;2023-03-01T12:09:17;2.57;;;1.37;;
71773;SDS011;59607;52.130;5.430;2023-03-01T12:18:10;2.75;;;1.52;;
71773;SDS011;59607;52.130;5.430;2023-03-01T12:50:38;1.60;;;1.33;;
71773;SDS011;59607;52.130;5.430;2023-03-01T12:55:49;2.22;;;1.30;;
71773;SDS011;59607;52.130;5.430;2023-03-01T13:04:06;2.05;;;1.45;;
71773;SDS011;59607;52.130;5.430;2023-03-01T13:06:55;1.80;;;1.43;;
71773;SDS011;59607;52.130;5.430;2023-03-01T13:09:50;2.10;;;1.55;;
71773;SDS011;59607;52.130;5.430;2023-03-01T13:15:37;3.15;;;1.27;;
71773;SDS011;59607;52.130;5.430;2023-03-01T13:20:52;2.80;;;1.60;;
71773;SDS011;59607;52.130;5.430;2023-03-01T13:23:26;3.17;;;1.63;;
71773;SDS011;59607;52.130;5.430;2023-03-01T13:28:37;3.10;;;1.48;;
71773;SDS011;59607;52.130;5.430;2023-03-01T13:31:09;2.00;;;1.50;;
71773;SDS011;59607;52.130;5.430;2023-03-01T13:34:06;2.23;;;1.30;;
71773;SDS011;59607;52.130;5.430;2023-03-01T13:37:28;2.25;;;1.13;;
71773;SDS011;59607;52.130;5.430;2023-03-01T13:39:57;3.22;;;1.55;;
71773;SDS011;59607;52.130;5.430;2023-03-01T13:42:37;2.63;;;1.35;;
71773;SDS011;59607;52.130;5.430;2023-03-01T13:48:02;2.27;;;1.40;;
71773;SDS011;59607;52.130;5.430;2023-03-01T13:50:37;2.33;;;1.45;;
71773;SDS011;59607;52.130;5.430;2023-03-01T13:53:17;2.40;;;1.50;;
71773;SDS011;59607;52.130;5.430;2023-03-01T13:55:46;2.25;;;1.60;;
71773;SDS011;59607;52.130;5.430;2023-03-01T13:58:24;2.28;;;1.60;;
71773;SDS011;59607;52.130;5.430;2023-03-01T14:01:06;2.00;;;1.23;;
71773;SDS011;59607;52.130;5.430;2023-03-01T14:03:40;2.08;;;1.40;;
71773;SDS011;59607;52.130;5.430;2023-03-01T14:06:09;3.00;;;1.90;;
71773;SDS011;59607;52.130;5.430;2023-03-01T14:15:02;3.20;;;2.00;;
71773;SDS011;59607;52.130;5.430;2023-03-01T14:20:28;2.10;;;1.70;;
71773;SDS011;59607;52.130;5.430;2023-03-01T14:23:18;2.83;;;1.23;;
71773;SDS011;59607;52.130;5.430;2023-03-01T14:26:14;3.45;;;1.58;;
71773;SDS011;59607;52.130;5.430;2023-03-01T14:28:50;2.43;;;1.37;;
71773;SDS011;59607;52.130;5.430;2023-03-01T14:34:01;2.15;;;1.63;;
71773;SDS011;59607;52.130;5.430;2023-03-01T14:36:32;2.60;;;1.33;;
71773;SDS011;59607;52.130;5.430;2023-03-01T14:39:15;2.88;;;1.55;;
71773;SDS011;59607;52.130;5.430;2023-03-01T14:41:47;2.67;;;1.57;;
71773;SDS011;59607;52.130;5.430;2023-03-01T14:44:15;2.60;;;1.73;;
71773;SDS011;59607;52.130;5.430;2023-03-01T14:46:56;3.30;;;1.45;;
71773;SDS011;59607;52.130;5.430;2023-03-01T14:49:34;7.28;;;1.55;;
71773;SDS011;59607;52.130;5.430;2023-03-01T14:52:17;2.10;;;1.42;;
71773;SDS011;59607;52.130;5.430;2023-03-01T14:54:50;2.47;;;1.57;;
71773;SDS011;59607;52.130;5.430;2023-03-01T14:57:31;2.45;;;1.70;;
71773;SDS011;59607;52.130;5.430;2023-03-01T14:59:58;2.05;;;1.85;;
71773;SDS011;59607;52.130;5.430;2023-03-01T15:02:33;2.28;;;1.65;;
71773;SDS011;59607;52.130;5.430;2023-03-01T15:05:02;2.65;;;1.50;;
71773;SDS011;59607;52.130;5.430;2023-03-01T15:07:46;2.17;;;1.70;;
71773;SDS011;59607;52.130;5.430;2023-03-01T15:10:38;2.63;;;1.58;;
71773;SDS011;59607;52.130;5.430;2023-03-01T15:13:22;3.65;;;1.65;;
71773;SDS011;59607;52.130;5.430;2023-03-01T15:15:53;2.42;;;1.75;;
71773;SDS011;59607;52.130;5.430;2023-03-01T15:18:47;3.22;;;1.67;;
71773;SDS011;59607;52.130;5.430;2023-03-01T15:21:21;2.80;;;1.73;;
71773;SDS011;59607;52.130;5.430;2023-03-01T15:23:55;3.88;;;1.77;;
71773;SDS011;59607;52.130;5.430;2023-03-01T15:26:30;3.38;;;1.60;;
71773;SDS011;59607;52.130;5.430;2023-03-01T15:29:04;3.30;;;1.88;;
71773;SDS011;59607;52.130;5.430;2023-03-01T15:31:37;3.63;;;1.48;;
71773;SDS011;59607;52.130;5.430;2023-03-01T15:36:59;2.55;;;1.25;;
71773;SDS011;59607;52.130;5.430;2023-03-01T15:39:37;3.03;;;1.48;;
71773;SDS011;59607;52.130;5.430;2023-03-01T15:42:12;3.75;;;1.63;;
71773;SDS011;59607;52.130;5.430;2023-03-01T15:47:47;3.03;;;1.73;;
71773;SDS011;59607;52.130;5.430;2023-03-01T15:50:26;3.53;;;2.13;;
71773;SDS011;59607;52.130;5.430;2023-03-01T15:52:57;3.67;;;1.80;;
71773;SDS011;59607;52.130;5.430;2023-03-01T15:55:36;2.83;;;1.65;;
71773;SDS011;59607;52.130;5.430;2023-03-01T15:58:10;3.53;;;2.03;;
71773;SDS011;59607;52.130;5.430;2023-03-01T16:00:54;2.40;;;1.97;;
71773;SDS011;59607;52.130;5.430;2023-03-01T16:03:31;2.67;;;2.15;;
71773;SDS011;59607;52.130;5.430;2023-03-01T16:05:58;3.53;;;1.90;;
71773;SDS011;59607;52.130;5.430;2023-03-01T16:08:24;2.38;;;1.73;;
71773;SDS011;59607;52.130;5.430;2023-03-01T16:10:51;4.90;;;2.10;;
71773;SDS011;59607;52.130;5.430;2023-03-01T16:13:17;3.67;;;2.00;;
71773;SDS011;59607;52.130;5.430;2023-03-01T16:15:48;2.75;;;1.95;;
71773;SDS011;59607;52.130;5.430;2023-03-01T16:18:14;2.88;;;1.75;;
71773;SDS011;59607;52.130;5.430;2023-03-01T16:20:41;4.00;;;1.90;;
71773;SDS011;59607;52.130;5.430;2023-03-01T16:23:08;2.33;;;1.83;;
71773;SDS011;59607;52.130;5.430;2023-03-01T16:25:40;2.47;;;1.70;;
71773;SDS011;59607;52.130;5.430;2023-03-01T16:28:07;3.20;;;1.48;;
71773;SDS011;59607;52.130;5.430;2023-03-01T16:30:53;3.58;;;2.28;;
71773;SDS011;59607;52.130;5.430;2023-03-01T16:33:23;2.08;;;1.58;;
71773;SDS011;59607;52.130;5.430;2023-03-01T16:35:58;3.80;;;2.00;;
71773;SDS011;59607;52.130;5.430;2023-03-01T16:38:26;5.10;;;2.40;;
71773;SDS011;59607;52.130;5.430;2023-03-01T16:40:52;2.50;;;1.85;;
71773;SDS011;59607;52.130;5.430;2023-03-01T16:43:19;6.50;;;2.58;;
71773;SDS011;59607;52.130;5.430;2023-03-01T16:45:46;4.13;;;2.25;;
71773;SDS011;59607;52.130;5.430;2023-03-01T16:48:15;3.40;;;2.40;;
71773;SDS011;59607;52.130;5.430;2023-03-01T16:50:41;3.10;;;2.13;;
71773;SDS011;59607;52.130;5.430;2023-03-01T16:53:11;5.18;;;2.42;;
71773;SDS011;59607;52.130;5.430;2023-03-01T16:55:40;3.58;;;1.95;;
71773;SDS011;59607;52.130;5.430;2023-03-01T16:58:26;3.45;;;2.10;;
71773;SDS011;59607;52.130;5.430;2023-03-01T17:03:46;4.43;;;2.00;;
71773;SDS011;59607;52.130;5.430;2023-03-01T17:06:16;2.88;;;2.13;;
71773;SDS011;59607;52.130;5.430;2023-03-01T17:08:48;3.60;;;2.50;;
71773;SDS011;59607;52.130;5.430;2023-03-01T17:11:17;2.47;;;1.85;;
71773;SDS011;59607;52.130;5.430;2023-03-01T17:13:45;2.90;;;2.10;;
71773;SDS011;59607;52.130;5.430;2023-03-01T17:16:14;4.37;;;1.93;;
71773;SDS011;59607;52.130;5.430;2023-03-01T17:18:43;3.47;;;2.17;;
71773;SDS011;59607;52.130;5.430;2023-03-01T17:21:09;6.07;;;2.70;;